sensor_id;sensor_type;location;lat;lon;timestamp;P1;durP1;ratioP1;P2;durP2;ratioP2
57055;SDS011;42945;51.718;5.324;2023-08-30T00:00:09;11.40;;;6.93;;
57055;SDS011;42945;51.718;5.324;2023-08-30T00:02:35;11.32;;;6.55;;
57055;SDS011;42945;51.718;5.324;2023-08-30T00:05:02;13.27;;;6.90;;
57055;SDS011;42945;51.718;5.324;2023-08-30T00:07:28;11.55;;;6.68;;
57055;SDS011;42945;51.718;5.324;2023-08-30T00:09:54;11.48;;;7.13;;
57055;SDS011;42945;51.718;5.324;2023-08-30T00:12:19;12.75;;;7.28;;
57055;SDS011;42945;51.718;5.324;2023-08-30T00:14:45;13.52;;;7.07;;
57055;SDS011;42945;51.718;5.324;2023-08-30T00:17:10;11.00;;;7.00;;
57055;SDS011;42945;51.718;5.324;2023-08-30T00:19:36;12.98;;;7.13;;
57055;SDS011;42945;51.718;5.324;2023-08-30T00:22:01;12.43;;;7.70;;
57055;SDS011;42945;51.718;5.324;2023-08-30T00:24:26;18.05;;;7.65;;
57055;SDS011;42945;51.718;5.324;2023-08-30T00:26:53;14.20;;;7.80;;
57055;SDS011;42945;51.718;5.324;2023-08-30T00:29:18;12.55;;;7.85;;
57055;SDS011;42945;51.718;5.324;2023-08-30T00:31:44;13.32;;;7.28;;
57055;SDS011;42945;51.718;5.324;2023-08-30T00:34:09;16.10;;;7.90;;
57055;SDS011;42945;51.718;5.324;2023-08-30T00:36:34;12.88;;;7.97;;
57055;SDS011;42945;51.718;5.324;2023-08-30T00:39:00;16.55;;;8.07;;
57055;SDS011;42945;51.718;5.324;2023-08-30T00:41:25;14.55;;;8.48;;
57055;SDS011;42945;51.718;5.324;2023-08-30T00:43:50;13.65;;;8.55;;
57055;SDS011;42945;51.718;5.324;2023-08-30T00:46:15;12.82;;;8.63;;
57055;SDS011;42945;51.718;5.324;2023-08-30T00:48:41;16.90;;;8.88;;
57055;SDS011;42945;51.718;5.324;2023-08-30T00:51:07;13.52;;;8.52;;
57055;SDS011;42945;51.718;5.324;2023-08-30T00:53:32;14.00;;;8.70;;
57055;SDS011;42945;51.718;5.324;2023-08-30T00:55:58;15.55;;;8.93;;
57055;SDS011;42945;51.718;5.324;2023-08-30T00:58:23;14.48;;;8.95;;
57055;SDS011;42945;51.718;5.324;2023-08-30T01:00:51;15.18;;;7.72;;
57055;SDS011;42945;51.718;5.324;2023-08-30T01:03:17;14.70;;;8.70;;
57055;SDS011;42945;51.718;5.324;2023-08-30T01:05:45;15.15;;;8.77;;
57055;SDS011;42945;51.718;5.324;2023-08-30T01:08:16;15.27;;;8.88;;
57055;SDS011;42945;51.718;5.324;2023-08-30T01:10:47;17.65;;;7.90;;
57055;SDS011;42945;51.718;5.324;2023-08-30T01:13:26;16.33;;;8.48;;
57055;SDS011;42945;51.718;5.324;2023-08-30T01:15:57;15.00;;;8.80;;
57055;SDS011;42945;51.718;5.324;2023-08-30T01:18:26;14.25;;;8.30;;
57055;SDS011;42945;51.718;5.324;2023-08-30T01:20:54;14.10;;;8.45;;
57055;SDS011;42945;51.718;5.324;2023-08-30T01:28:26;16.17;;;8.63;;
57055;SDS011;42945;51.718;5.324;2023-08-30T01:31:06;15.85;;;9.02;;
57055;SDS011;42945;51.718;5.324;2023-08-30T01:33:46;16.15;;;9.15;;
57055;SDS011;42945;51.718;5.324;2023-08-30T01:36:13;16.92;;;9.02;;
57055;SDS011;42945;51.718;5.324;2023-08-30T01:38:45;13.73;;;8.70;;
57055;SDS011;42945;51.718;5.324;2023-08-30T01:41:16;18.52;;;8.55;;
57055;SDS011;42945;51.718;5.324;2023-08-30T01:43:45;14.85;;;8.65;;
57055;SDS011;42945;51.718;5.324;2023-08-30T01:46:17;17.23;;;9.10;;
57055;SDS011;42945;51.718;5.324;2023-08-30T01:48:44;18.63;;;9.05;;
57055;SDS011;42945;51.718;5.324;2023-08-30T01:51:13;14.85;;;8.77;;
57055;SDS011;42945;51.718;5.324;2023-08-30T01:53:40;16.02;;;8.98;;
57055;SDS011;42945;51.718;5.324;2023-08-30T01:56:08;17.48;;;9.95;;
57055;SDS011;42945;51.718;5.324;2023-08-30T01:58:33;15.18;;;9.70;;
57055;SDS011;42945;51.718;5.324;2023-08-30T02:01:01;15.57;;;8.52;;
57055;SDS011;42945;51.718;5.324;2023-08-30T02:03:33;15.52;;;9.60;;
57055;SDS011;42945;51.718;5.324;2023-08-30T02:08:28;19.48;;;9.25;;
57055;SDS011;42945;51.718;5.324;2023-08-30T02:11:01;17.73;;;9.35;;
57055;SDS011;42945;51.718;5.324;2023-08-30T02:13:30;14.07;;;8.57;;
57055;SDS011;42945;51.718;5.324;2023-08-30T02:15:57;18.55;;;9.13;;
57055;SDS011;42945;51.718;5.324;2023-08-30T02:18:25;14.63;;;9.02;;
57055;SDS011;42945;51.718;5.324;2023-08-30T02:20:51;16.77;;;9.18;;
57055;SDS011;42945;51.718;5.324;2023-08-30T02:23:18;16.38;;;9.18;;
57055;SDS011;42945;51.718;5.324;2023-08-30T02:25:44;17.77;;;9.32;;
57055;SDS011;42945;51.718;5.324;2023-08-30T02:28:11;16.75;;;8.70;;
57055;SDS011;42945;51.718;5.324;2023-08-30T02:30:36;15.40;;;8.45;;
57055;SDS011;42945;51.718;5.324;2023-08-30T02:33:02;17.55;;;8.75;;
57055;SDS011;42945;51.718;5.324;2023-08-30T02:35:27;11.85;;;8.50;;
57055;SDS011;42945;51.718;5.324;2023-08-30T02:37:52;20.70;;;9.50;;
57055;SDS011;42945;51.718;5.324;2023-08-30T02:40:18;14.95;;;9.07;;
57055;SDS011;42945;51.718;5.324;2023-08-30T02:42:43;17.73;;;8.50;;
57055;SDS011;42945;51.718;5.324;2023-08-30T02:45:08;15.55;;;9.07;;
57055;SDS011;42945;51.718;5.324;2023-08-30T02:47:34;15.55;;;8.93;;
57055;SDS011;42945;51.718;5.324;2023-08-30T02:49:59;20.23;;;9.60;;
57055;SDS011;42945;51.718;5.324;2023-08-30T02:52:25;16.38;;;9.05;;
57055;SDS011;42945;51.718;5.324;2023-08-30T02:54:50;15.10;;;9.30;;
57055;SDS011;42945;51.718;5.324;2023-08-30T02:57:15;20.35;;;9.90;;
57055;SDS011;42945;51.718;5.324;2023-08-30T02:59:43;16.85;;;9.68;;
57055;SDS011;42945;51.718;5.324;2023-08-30T03:02:09;19.08;;;10.20;;
57055;SDS011;42945;51.718;5.324;2023-08-30T03:04:34;20.45;;;10.45;;
57055;SDS011;42945;51.718;5.324;2023-08-30T03:07:00;18.75;;;10.48;;
57055;SDS011;42945;51.718;5.324;2023-08-30T03:09:26;18.35;;;11.02;;
57055;SDS011;42945;51.718;5.324;2023-08-30T03:11:51;17.73;;;10.57;;
57055;SDS011;42945;51.718;5.324;2023-08-30T03:14:16;18.60;;;11.95;;
57055;SDS011;42945;51.718;5.324;2023-08-30T03:16:42;20.77;;;12.13;;
57055;SDS011;42945;51.718;5.324;2023-08-30T03:19:09;19.10;;;11.93;;
57055;SDS011;42945;51.718;5.324;2023-08-30T03:21:35;18.98;;;11.88;;
57055;SDS011;42945;51.718;5.324;2023-08-30T03:24:00;18.67;;;12.25;;
57055;SDS011;42945;51.718;5.324;2023-08-30T03:26:25;20.33;;;12.40;;
57055;SDS011;42945;51.718;5.324;2023-08-30T03:28:51;20.80;;;12.57;;
57055;SDS011;42945;51.718;5.324;2023-08-30T03:31:19;20.90;;;12.25;;
57055;SDS011;42945;51.718;5.324;2023-08-30T03:33:46;17.60;;;11.50;;
57055;SDS011;42945;51.718;5.324;2023-08-30T03:36:14;20.02;;;11.65;;
57055;SDS011;42945;51.718;5.324;2023-08-30T03:38:40;18.88;;;12.18;;
57055;SDS011;42945;51.718;5.324;2023-08-30T03:41:08;17.77;;;11.65;;
57055;SDS011;42945;51.718;5.324;2023-08-30T03:43:34;22.02;;;12.48;;
57055;SDS011;42945;51.718;5.324;2023-08-30T03:46:00;19.30;;;11.52;;
57055;SDS011;42945;51.718;5.324;2023-08-30T03:48:28;20.52;;;12.18;;
57055;SDS011;42945;51.718;5.324;2023-08-30T03:50:55;20.90;;;12.77;;
57055;SDS011;42945;51.718;5.324;2023-08-30T03:53:21;19.15;;;11.90;;
57055;SDS011;42945;51.718;5.324;2023-08-30T03:55:47;19.05;;;11.82;;
57055;SDS011;42945;51.718;5.324;2023-08-30T03:58:15;23.83;;;12.43;;
57055;SDS011;42945;51.718;5.324;2023-08-30T04:00:40;20.60;;;12.77;;
57055;SDS011;42945;51.718;5.324;2023-08-30T04:03:07;22.25;;;12.55;;
57055;SDS011;42945;51.718;5.324;2023-08-30T04:05:36;21.70;;;12.48;;
57055;SDS011;42945;51.718;5.324;2023-08-30T04:08:02;22.55;;;12.55;;
57055;SDS011;42945;51.718;5.324;2023-08-30T04:10:28;20.88;;;12.63;;
57055;SDS011;42945;51.718;5.324;2023-08-30T04:12:54;22.20;;;12.52;;
57055;SDS011;42945;51.718;5.324;2023-08-30T04:15:28;19.90;;;12.13;;
57055;SDS011;42945;51.718;5.324;2023-08-30T04:17:54;21.60;;;12.13;;
57055;SDS011;42945;51.718;5.324;2023-08-30T04:20:31;21.42;;;13.30;;
57055;SDS011;42945;51.718;5.324;2023-08-30T04:22:58;19.52;;;12.57;;
57055;SDS011;42945;51.718;5.324;2023-08-30T04:25:26;19.67;;;12.57;;
57055;SDS011;42945;51.718;5.324;2023-08-30T04:27:55;19.33;;;12.45;;
57055;SDS011;42945;51.718;5.324;2023-08-30T04:30:20;23.98;;;13.63;;
57055;SDS011;42945;51.718;5.324;2023-08-30T04:32:46;22.08;;;13.02;;
57055;SDS011;42945;51.718;5.324;2023-08-30T04:35:12;24.83;;;13.82;;
57055;SDS011;42945;51.718;5.324;2023-08-30T04:37:39;20.55;;;12.98;;
57055;SDS011;42945;51.718;5.324;2023-08-30T04:40:07;26.58;;;14.02;;
57055;SDS011;42945;51.718;5.324;2023-08-30T04:42:39;29.02;;;13.95;;
57055;SDS011;42945;51.718;5.324;2023-08-30T04:45:11;24.15;;;14.00;;
57055;SDS011;42945;51.718;5.324;2023-08-30T04:47:42;22.85;;;13.30;;
57055;SDS011;42945;51.718;5.324;2023-08-30T04:50:11;23.35;;;13.00;;
57055;SDS011;42945;51.718;5.324;2023-08-30T04:52:36;22.02;;;11.70;;
57055;SDS011;42945;51.718;5.324;2023-08-30T04:55:07;23.73;;;11.25;;
57055;SDS011;42945;51.718;5.324;2023-08-30T04:57:34;19.65;;;11.40;;
57055;SDS011;42945;51.718;5.324;2023-08-30T05:00:02;22.75;;;10.93;;
57055;SDS011;42945;51.718;5.324;2023-08-30T05:02:31;24.00;;;12.02;;
57055;SDS011;42945;51.718;5.324;2023-08-30T05:04:57;25.58;;;11.63;;
57055;SDS011;42945;51.718;5.324;2023-08-30T05:07:28;21.33;;;11.80;;
57055;SDS011;42945;51.718;5.324;2023-08-30T05:09:56;20.65;;;11.48;;
57055;SDS011;42945;51.718;5.324;2023-08-30T05:12:22;23.85;;;11.80;;
57055;SDS011;42945;51.718;5.324;2023-08-30T05:14:47;23.50;;;11.75;;
57055;SDS011;42945;51.718;5.324;2023-08-30T05:17:13;23.15;;;11.63;;
57055;SDS011;42945;51.718;5.324;2023-08-30T05:19:48;19.88;;;11.10;;
57055;SDS011;42945;51.718;5.324;2023-08-30T05:22:16;21.90;;;11.20;;
57055;SDS011;42945;51.718;5.324;2023-08-30T05:24:45;23.98;;;10.93;;
57055;SDS011;42945;51.718;5.324;2023-08-30T05:27:10;20.42;;;11.48;;
57055;SDS011;42945;51.718;5.324;2023-08-30T05:29:37;20.27;;;11.23;;
57055;SDS011;42945;51.718;5.324;2023-08-30T05:32:03;21.42;;;11.13;;
57055;SDS011;42945;51.718;5.324;2023-08-30T05:34:29;22.63;;;11.30;;
57055;SDS011;42945;51.718;5.324;2023-08-30T05:36:54;21.50;;;10.80;;
57055;SDS011;42945;51.718;5.324;2023-08-30T05:39:19;19.00;;;10.55;;
57055;SDS011;42945;51.718;5.324;2023-08-30T05:41:45;19.33;;;10.45;;
57055;SDS011;42945;51.718;5.324;2023-08-30T05:44:11;20.20;;;10.30;;
57055;SDS011;42945;51.718;5.324;2023-08-30T05:46:37;20.13;;;10.32;;
57055;SDS011;42945;51.718;5.324;2023-08-30T05:49:03;18.60;;;10.30;;
57055;SDS011;42945;51.718;5.324;2023-08-30T05:51:34;20.15;;;10.93;;
57055;SDS011;42945;51.718;5.324;2023-08-30T05:53:59;18.17;;;10.00;;
57055;SDS011;42945;51.718;5.324;2023-08-30T05:56:28;16.58;;;10.00;;
57055;SDS011;42945;51.718;5.324;2023-08-30T05:58:53;20.63;;;10.30;;
57055;SDS011;42945;51.718;5.324;2023-08-30T06:01:20;16.92;;;10.00;;
57055;SDS011;42945;51.718;5.324;2023-08-30T06:03:46;17.58;;;9.80;;
57055;SDS011;42945;51.718;5.324;2023-08-30T06:06:11;15.00;;;9.82;;
57055;SDS011;42945;51.718;5.324;2023-08-30T06:08:37;16.45;;;10.00;;
57055;SDS011;42945;51.718;5.324;2023-08-30T06:11:09;18.35;;;10.98;;
57055;SDS011;42945;51.718;5.324;2023-08-30T06:13:34;18.08;;;10.30;;
57055;SDS011;42945;51.718;5.324;2023-08-30T06:16:02;18.65;;;10.75;;
57055;SDS011;42945;51.718;5.324;2023-08-30T06:18:31;22.90;;;10.35;;
57055;SDS011;42945;51.718;5.324;2023-08-30T06:20:57;18.42;;;10.45;;
57055;SDS011;42945;51.718;5.324;2023-08-30T06:23:23;19.08;;;10.75;;
57055;SDS011;42945;51.718;5.324;2023-08-30T06:28:46;19.80;;;11.18;;
57055;SDS011;42945;51.718;5.324;2023-08-30T06:31:12;23.55;;;11.32;;
57055;SDS011;42945;51.718;5.324;2023-08-30T06:33:37;22.83;;;11.70;;
57055;SDS011;42945;51.718;5.324;2023-08-30T06:36:04;20.02;;;11.77;;
57055;SDS011;42945;51.718;5.324;2023-08-30T06:38:30;24.38;;;12.60;;
57055;SDS011;42945;51.718;5.324;2023-08-30T06:40:57;22.10;;;11.95;;
57055;SDS011;42945;51.718;5.324;2023-08-30T06:43:23;21.92;;;11.90;;
57055;SDS011;42945;51.718;5.324;2023-08-30T06:45:49;22.25;;;11.85;;
57055;SDS011;42945;51.718;5.324;2023-08-30T06:48:14;20.48;;;12.20;;
57055;SDS011;42945;51.718;5.324;2023-08-30T06:50:39;22.33;;;12.73;;
57055;SDS011;42945;51.718;5.324;2023-08-30T06:53:05;23.98;;;12.95;;
57055;SDS011;42945;51.718;5.324;2023-08-30T06:55:30;25.40;;;12.43;;
57055;SDS011;42945;51.718;5.324;2023-08-30T06:57:57;24.85;;;12.68;;
57055;SDS011;42945;51.718;5.324;2023-08-30T07:00:22;25.83;;;13.25;;
57055;SDS011;42945;51.718;5.324;2023-08-30T07:02:47;24.92;;;11.77;;
57055;SDS011;42945;51.718;5.324;2023-08-30T07:05:13;24.23;;;12.23;;
57055;SDS011;42945;51.718;5.324;2023-08-30T07:07:38;22.40;;;12.27;;
57055;SDS011;42945;51.718;5.324;2023-08-30T07:10:04;22.83;;;12.13;;
57055;SDS011;42945;51.718;5.324;2023-08-30T07:12:33;22.08;;;11.93;;
57055;SDS011;42945;51.718;5.324;2023-08-30T07:14:59;24.10;;;11.52;;
57055;SDS011;42945;51.718;5.324;2023-08-30T07:17:24;23.58;;;11.40;;
57055;SDS011;42945;51.718;5.324;2023-08-30T07:19:49;20.58;;;11.30;;
57055;SDS011;42945;51.718;5.324;2023-08-30T07:22:15;25.92;;;11.30;;
57055;SDS011;42945;51.718;5.324;2023-08-30T07:24:42;22.92;;;11.65;;
57055;SDS011;42945;51.718;5.324;2023-08-30T07:27:08;19.73;;;11.65;;
57055;SDS011;42945;51.718;5.324;2023-08-30T07:29:33;21.60;;;11.65;;
57055;SDS011;42945;51.718;5.324;2023-08-30T07:31:59;22.45;;;11.68;;
57055;SDS011;42945;51.718;5.324;2023-08-30T07:34:24;22.25;;;11.75;;
57055;SDS011;42945;51.718;5.324;2023-08-30T07:36:49;25.13;;;12.93;;
57055;SDS011;42945;51.718;5.324;2023-08-30T07:39:15;21.25;;;11.63;;
57055;SDS011;42945;51.718;5.324;2023-08-30T07:41:40;26.90;;;12.80;;
57055;SDS011;42945;51.718;5.324;2023-08-30T07:44:05;25.05;;;12.43;;
57055;SDS011;42945;51.718;5.324;2023-08-30T07:46:31;23.88;;;12.02;;
57055;SDS011;42945;51.718;5.324;2023-08-30T07:48:56;24.20;;;11.70;;
57055;SDS011;42945;51.718;5.324;2023-08-30T07:51:21;23.63;;;12.10;;
57055;SDS011;42945;51.718;5.324;2023-08-30T07:53:47;22.63;;;12.60;;
57055;SDS011;42945;51.718;5.324;2023-08-30T07:56:12;24.83;;;12.52;;
57055;SDS011;42945;51.718;5.324;2023-08-30T07:58:37;21.48;;;11.50;;
57055;SDS011;42945;51.718;5.324;2023-08-30T08:01:03;20.52;;;11.70;;
57055;SDS011;42945;51.718;5.324;2023-08-30T08:03:28;20.60;;;11.63;;
57055;SDS011;42945;51.718;5.324;2023-08-30T08:05:53;20.50;;;10.73;;
57055;SDS011;42945;51.718;5.324;2023-08-30T08:08:19;18.08;;;9.68;;
57055;SDS011;42945;51.718;5.324;2023-08-30T08:10:44;14.98;;;9.13;;
57055;SDS011;42945;51.718;5.324;2023-08-30T08:13:10;15.52;;;9.00;;
57055;SDS011;42945;51.718;5.324;2023-08-30T08:15:35;15.30;;;8.18;;
57055;SDS011;42945;51.718;5.324;2023-08-30T08:18:01;13.57;;;7.15;;
57055;SDS011;42945;51.718;5.324;2023-08-30T08:20:28;12.77;;;7.25;;
57055;SDS011;42945;51.718;5.324;2023-08-30T08:22:54;14.07;;;7.13;;
57055;SDS011;42945;51.718;5.324;2023-08-30T08:25:21;13.73;;;7.18;;
57055;SDS011;42945;51.718;5.324;2023-08-30T08:27:48;13.52;;;6.53;;
57055;SDS011;42945;51.718;5.324;2023-08-30T08:30:14;13.45;;;7.25;;
57055;SDS011;42945;51.718;5.324;2023-08-30T08:32:39;11.40;;;6.45;;
57055;SDS011;42945;51.718;5.324;2023-08-30T08:35:04;9.55;;;6.18;;
57055;SDS011;42945;51.718;5.324;2023-08-30T08:37:33;9.23;;;5.68;;
57055;SDS011;42945;51.718;5.324;2023-08-30T08:40:02;10.30;;;5.22;;
57055;SDS011;42945;51.718;5.324;2023-08-30T08:42:33;10.65;;;5.68;;
57055;SDS011;42945;51.718;5.324;2023-08-30T08:44:59;8.40;;;5.38;;
57055;SDS011;42945;51.718;5.324;2023-08-30T08:47:26;10.63;;;4.85;;
57055;SDS011;42945;51.718;5.324;2023-08-30T08:49:55;9.13;;;5.82;;
57055;SDS011;42945;51.718;5.324;2023-08-30T08:52:21;8.20;;;5.70;;
57055;SDS011;42945;51.718;5.324;2023-08-30T08:54:47;10.15;;;5.97;;
57055;SDS011;42945;51.718;5.324;2023-08-30T08:57:15;9.90;;;6.53;;
57055;SDS011;42945;51.718;5.324;2023-08-30T08:59:41;10.38;;;6.07;;
57055;SDS011;42945;51.718;5.324;2023-08-30T09:02:07;16.42;;;7.13;;
57055;SDS011;42945;51.718;5.324;2023-08-30T09:04:36;12.52;;;7.25;;
57055;SDS011;42945;51.718;5.324;2023-08-30T09:07:02;12.85;;;8.23;;
57055;SDS011;42945;51.718;5.324;2023-08-30T09:09:27;13.40;;;8.40;;
57055;SDS011;42945;51.718;5.324;2023-08-30T09:11:53;12.98;;;8.45;;
57055;SDS011;42945;51.718;5.324;2023-08-30T09:14:20;13.48;;;8.52;;
57055;SDS011;42945;51.718;5.324;2023-08-30T09:16:55;14.40;;;8.40;;
57055;SDS011;42945;51.718;5.324;2023-08-30T09:19:21;11.52;;;8.07;;
57055;SDS011;42945;51.718;5.324;2023-08-30T09:21:53;13.48;;;9.25;;
57055;SDS011;42945;51.718;5.324;2023-08-30T09:24:23;15.13;;;9.32;;
57055;SDS011;42945;51.718;5.324;2023-08-30T09:26:49;13.20;;;8.50;;
57055;SDS011;42945;51.718;5.324;2023-08-30T09:29:19;12.30;;;9.02;;
57055;SDS011;42945;51.718;5.324;2023-08-30T09:31:50;10.93;;;8.70;;
57055;SDS011;42945;51.718;5.324;2023-08-30T09:34:23;11.88;;;8.65;;
57055;SDS011;42945;51.718;5.324;2023-08-30T09:36:50;13.52;;;8.88;;
57055;SDS011;42945;51.718;5.324;2023-08-30T09:39:16;11.68;;;9.13;;
57055;SDS011;42945;51.718;5.324;2023-08-30T09:41:49;11.40;;;8.75;;
57055;SDS011;42945;51.718;5.324;2023-08-30T09:46:53;10.93;;;9.15;;
57055;SDS011;42945;51.718;5.324;2023-08-30T09:49:21;13.35;;;9.38;;
57055;SDS011;42945;51.718;5.324;2023-08-30T09:51:49;13.90;;;9.30;;
57055;SDS011;42945;51.718;5.324;2023-08-30T09:54:20;12.60;;;9.57;;
57055;SDS011;42945;51.718;5.324;2023-08-30T09:56:48;13.48;;;9.32;;
57055;SDS011;42945;51.718;5.324;2023-08-30T09:59:17;12.18;;;10.13;;
57055;SDS011;42945;51.718;5.324;2023-08-30T10:01:43;12.73;;;9.57;;
57055;SDS011;42945;51.718;5.324;2023-08-30T10:04:09;15.48;;;9.07;;
57055;SDS011;42945;51.718;5.324;2023-08-30T10:06:36;11.35;;;9.20;;
57055;SDS011;42945;51.718;5.324;2023-08-30T10:09:03;10.35;;;8.93;;
57055;SDS011;42945;51.718;5.324;2023-08-30T10:11:30;13.35;;;8.35;;
57055;SDS011;42945;51.718;5.324;2023-08-30T10:13:58;9.70;;;7.70;;
57055;SDS011;42945;51.718;5.324;2023-08-30T10:16:24;12.85;;;8.75;;
57055;SDS011;42945;51.718;5.324;2023-08-30T10:18:54;10.13;;;7.63;;
57055;SDS011;42945;51.718;5.324;2023-08-30T10:21:29;9.98;;;7.38;;
57055;SDS011;42945;51.718;5.324;2023-08-30T10:23:56;10.55;;;7.40;;
57055;SDS011;42945;51.718;5.324;2023-08-30T10:26:24;10.60;;;6.60;;
57055;SDS011;42945;51.718;5.324;2023-08-30T10:28:53;9.68;;;6.40;;
57055;SDS011;42945;51.718;5.324;2023-08-30T10:31:20;6.20;;;4.85;;
57055;SDS011;42945;51.718;5.324;2023-08-30T10:33:49;8.77;;;4.53;;
57055;SDS011;42945;51.718;5.324;2023-08-30T10:36:22;8.90;;;4.50;;
57055;SDS011;42945;51.718;5.324;2023-08-30T10:38:51;4.65;;;2.70;;
57055;SDS011;42945;51.718;5.324;2023-08-30T10:41:22;4.20;;;2.60;;
57055;SDS011;42945;51.718;5.324;2023-08-30T10:43:49;5.30;;;2.58;;
57055;SDS011;42945;51.718;5.324;2023-08-30T10:46:30;4.35;;;2.80;;
57055;SDS011;42945;51.718;5.324;2023-08-30T10:49:12;5.38;;;2.88;;
57055;SDS011;42945;51.718;5.324;2023-08-30T10:51:41;5.60;;;3.08;;
57055;SDS011;42945;51.718;5.324;2023-08-30T10:56:57;8.32;;;3.15;;
57055;SDS011;42945;51.718;5.324;2023-08-30T10:59:24;6.70;;;3.30;;
57055;SDS011;42945;51.718;5.324;2023-08-30T11:01:50;5.30;;;3.30;;
57055;SDS011;42945;51.718;5.324;2023-08-30T11:04:17;6.43;;;3.50;;
57055;SDS011;42945;51.718;5.324;2023-08-30T11:06:44;6.88;;;3.00;;
57055;SDS011;42945;51.718;5.324;2023-08-30T11:09:15;5.85;;;3.15;;
57055;SDS011;42945;51.718;5.324;2023-08-30T11:11:43;7.40;;;3.47;;
57055;SDS011;42945;51.718;5.324;2023-08-30T11:14:09;9.45;;;4.00;;
57055;SDS011;42945;51.718;5.324;2023-08-30T11:16:35;9.90;;;4.00;;
57055;SDS011;42945;51.718;5.324;2023-08-30T11:19:01;11.50;;;3.80;;
57055;SDS011;42945;51.718;5.324;2023-08-30T11:21:34;7.57;;;3.88;;
57055;SDS011;42945;51.718;5.324;2023-08-30T11:24:01;9.43;;;3.70;;
57055;SDS011;42945;51.718;5.324;2023-08-30T11:26:28;10.30;;;3.70;;
57055;SDS011;42945;51.718;5.324;2023-08-30T11:28:54;6.43;;;3.20;;
57055;SDS011;42945;51.718;5.324;2023-08-30T11:31:20;6.10;;;3.17;;
57055;SDS011;42945;51.718;5.324;2023-08-30T11:33:50;10.55;;;3.10;;
57055;SDS011;42945;51.718;5.324;2023-08-30T11:36:21;7.07;;;1.83;;
57055;SDS011;42945;51.718;5.324;2023-08-30T11:38:47;6.60;;;1.88;;
57055;SDS011;42945;51.718;5.324;2023-08-30T11:41:14;8.73;;;2.13;;
57055;SDS011;42945;51.718;5.324;2023-08-30T11:43:39;5.30;;;1.67;;
57055;SDS011;42945;51.718;5.324;2023-08-30T11:48:37;4.57;;;2.03;;
57055;SDS011;42945;51.718;5.324;2023-08-30T11:51:05;6.22;;;1.90;;
57055;SDS011;42945;51.718;5.324;2023-08-30T11:53:34;5.90;;;1.92;;
57055;SDS011;42945;51.718;5.324;2023-08-30T11:56:00;9.90;;;2.17;;
57055;SDS011;42945;51.718;5.324;2023-08-30T11:58:26;5.57;;;2.00;;
57055;SDS011;42945;51.718;5.324;2023-08-30T12:00:52;9.15;;;1.92;;
57055;SDS011;42945;51.718;5.324;2023-08-30T12:03:22;12.63;;;2.38;;
57055;SDS011;42945;51.718;5.324;2023-08-30T12:05:48;9.98;;;2.53;;
57055;SDS011;42945;51.718;5.324;2023-08-30T12:08:18;7.80;;;2.03;;
57055;SDS011;42945;51.718;5.324;2023-08-30T12:10:45;13.50;;;2.80;;
57055;SDS011;42945;51.718;5.324;2023-08-30T12:15:50;11.65;;;2.45;;
57055;SDS011;42945;51.718;5.324;2023-08-30T12:18:26;10.82;;;2.40;;
57055;SDS011;42945;51.718;5.324;2023-08-30T12:21:00;9.48;;;2.22;;
57055;SDS011;42945;51.718;5.324;2023-08-30T12:23:28;11.70;;;2.20;;
57055;SDS011;42945;51.718;5.324;2023-08-30T12:26:01;8.35;;;1.92;;
57055;SDS011;42945;51.718;5.324;2023-08-30T12:28:31;8.90;;;2.25;;
57055;SDS011;42945;51.718;5.324;2023-08-30T12:30:58;8.73;;;1.80;;
57055;SDS011;42945;51.718;5.324;2023-08-30T12:33:24;8.93;;;2.15;;
57055;SDS011;42945;51.718;5.324;2023-08-30T12:35:50;8.90;;;2.35;;
57055;SDS011;42945;51.718;5.324;2023-08-30T12:38:19;8.73;;;2.03;;
57055;SDS011;42945;51.718;5.324;2023-08-30T12:40:48;9.18;;;2.10;;
57055;SDS011;42945;51.718;5.324;2023-08-30T12:43:18;12.00;;;2.28;;
57055;SDS011;42945;51.718;5.324;2023-08-30T12:45:47;6.40;;;2.20;;
57055;SDS011;42945;51.718;5.324;2023-08-30T12:48:14;9.07;;;1.85;;
57055;SDS011;42945;51.718;5.324;2023-08-30T12:50:41;10.38;;;2.50;;
57055;SDS011;42945;51.718;5.324;2023-08-30T12:53:10;12.02;;;1.98;;
57055;SDS011;42945;51.718;5.324;2023-08-30T12:55:36;10.68;;;2.30;;
57055;SDS011;42945;51.718;5.324;2023-08-30T12:58:06;8.35;;;1.88;;
57055;SDS011;42945;51.718;5.324;2023-08-30T13:00:32;10.05;;;1.90;;
57055;SDS011;42945;51.718;5.324;2023-08-30T13:02:58;8.20;;;1.95;;
57055;SDS011;42945;51.718;5.324;2023-08-30T13:05:23;5.85;;;2.05;;
57055;SDS011;42945;51.718;5.324;2023-08-30T13:07:49;9.65;;;1.88;;
57055;SDS011;42945;51.718;5.324;2023-08-30T13:10:14;7.82;;;1.52;;
57055;SDS011;42945;51.718;5.324;2023-08-30T13:12:40;5.68;;;1.50;;
57055;SDS011;42945;51.718;5.324;2023-08-30T13:15:06;8.68;;;1.50;;
57055;SDS011;42945;51.718;5.324;2023-08-30T13:17:35;5.55;;;1.33;;
57055;SDS011;42945;51.718;5.324;2023-08-30T13:20:00;5.03;;;1.67;;
57055;SDS011;42945;51.718;5.324;2023-08-30T13:22:27;8.50;;;1.67;;
57055;SDS011;42945;51.718;5.324;2023-08-30T13:24:53;7.22;;;1.42;;
57055;SDS011;42945;51.718;5.324;2023-08-30T13:27:19;11.27;;;1.77;;
57055;SDS011;42945;51.718;5.324;2023-08-30T13:29:47;11.10;;;2.35;;
57055;SDS011;42945;51.718;5.324;2023-08-30T13:32:13;11.60;;;1.70;;
57055;SDS011;42945;51.718;5.324;2023-08-30T13:34:39;8.07;;;1.75;;
57055;SDS011;42945;51.718;5.324;2023-08-30T13:37:05;5.75;;;1.02;;
57055;SDS011;42945;51.718;5.324;2023-08-30T13:39:30;5.25;;;1.67;;
57055;SDS011;42945;51.718;5.324;2023-08-30T13:41:56;6.07;;;1.38;;
57055;SDS011;42945;51.718;5.324;2023-08-30T13:44:21;7.07;;;1.52;;
57055;SDS011;42945;51.718;5.324;2023-08-30T13:46:47;5.88;;;1.27;;
57055;SDS011;42945;51.718;5.324;2023-08-30T13:49:13;5.65;;;1.70;;
57055;SDS011;42945;51.718;5.324;2023-08-30T13:51:39;5.25;;;1.30;;
57055;SDS011;42945;51.718;5.324;2023-08-30T13:54:04;6.85;;;1.42;;
57055;SDS011;42945;51.718;5.324;2023-08-30T13:56:30;6.88;;;1.20;;
57055;SDS011;42945;51.718;5.324;2023-08-30T13:58:57;8.70;;;1.55;;
57055;SDS011;42945;51.718;5.324;2023-08-30T14:01:22;8.40;;;1.27;;
57055;SDS011;42945;51.718;5.324;2023-08-30T14:03:48;6.88;;;1.60;;
57055;SDS011;42945;51.718;5.324;2023-08-30T14:06:15;5.95;;;1.30;;
57055;SDS011;42945;51.718;5.324;2023-08-30T14:08:40;11.60;;;2.05;;
57055;SDS011;42945;51.718;5.324;2023-08-30T14:11:06;7.43;;;1.70;;
57055;SDS011;42945;51.718;5.324;2023-08-30T14:13:31;6.75;;;1.90;;
57055;SDS011;42945;51.718;5.324;2023-08-30T14:16:02;6.25;;;1.38;;
57055;SDS011;42945;51.718;5.324;2023-08-30T14:18:31;8.93;;;1.60;;
57055;SDS011;42945;51.718;5.324;2023-08-30T14:20:57;11.90;;;1.88;;
57055;SDS011;42945;51.718;5.324;2023-08-30T14:23:24;4.75;;;1.02;;
57055;SDS011;42945;51.718;5.324;2023-08-30T14:25:57;5.43;;;1.40;;
57055;SDS011;42945;51.718;5.324;2023-08-30T14:28:24;8.35;;;1.33;;
57055;SDS011;42945;51.718;5.324;2023-08-30T14:30:50;9.70;;;1.70;;
57055;SDS011;42945;51.718;5.324;2023-08-30T14:33:16;5.72;;;1.10;;
57055;SDS011;42945;51.718;5.324;2023-08-30T14:35:42;5.82;;;1.65;;
57055;SDS011;42945;51.718;5.324;2023-08-30T14:38:07;9.20;;;1.50;;
57055;SDS011;42945;51.718;5.324;2023-08-30T14:40:33;7.45;;;1.50;;
57055;SDS011;42945;51.718;5.324;2023-08-30T14:42:58;4.70;;;1.33;;
57055;SDS011;42945;51.718;5.324;2023-08-30T14:45:24;8.98;;;2.10;;
57055;SDS011;42945;51.718;5.324;2023-08-30T14:47:49;9.30;;;1.67;;
57055;SDS011;42945;51.718;5.324;2023-08-30T14:50:14;5.95;;;1.30;;
57055;SDS011;42945;51.718;5.324;2023-08-30T14:52:40;4.97;;;1.52;;